createdAt,value
2018-12-21T00:00:10.846Z,10.27
2018-12-21T00:02:39.156Z,13.63
2018-12-21T00:05:07.509Z,11.73
2018-12-21T00:07:35.977Z,9.83
2018-12-21T00:10:05.842Z,15.77
2018-12-21T00:12:34.169Z,11.40
2018-12-21T00:15:03.050Z,12.57
2018-12-21T00:17:34.763Z,9.83
2018-12-21T00:20:01.734Z,10.63
2018-12-21T00:22:30.066Z,14.73
2018-12-21T00:24:58.415Z,10.93
2018-12-21T00:27:26.807Z,10.47
2018-12-21T00:29:55.202Z,11.33
2018-12-21T00:32:28.932Z,11.20
2018-12-21T00:35:03.022Z,11.50
2018-12-21T00:37:36.771Z,11.27
2018-12-21T00:40:12.473Z,10.57
2018-12-21T00:42:42.856Z,14.80
2018-12-21T00:45:13.117Z,15.50
2018-12-21T00:47:41.524Z,13.77
2018-12-21T00:50:10.382Z,12.40
2018-12-21T00:52:38.902Z,10.87
2018-12-21T00:55:07.366Z,11.37
2018-12-21T00:57:35.727Z,12.03
2018-12-21T01:00:07.378Z,12.03
2018-12-21T01:02:35.847Z,14.00
2018-12-21T01:05:04.557Z,13.60
2018-12-21T01:07:32.969Z,17.47
2018-12-21T01:10:01.433Z,14.67
2018-12-21T01:12:29.787Z,17.93
2018-12-21T01:14:58.641Z,16.90
2018-12-21T01:17:26.989Z,13.20
2018-12-21T01:19:55.466Z,16.67
2018-12-21T01:22:23.841Z,15.77
2018-12-21T01:24:52.168Z,14.07
2018-12-21T01:27:20.509Z,14.47
2018-12-21T01:29:48.853Z,17.40
2018-12-21T01:32:17.344Z,13.37
2018-12-21T01:34:45.701Z,13.67
2018-12-21T01:37:14.212Z,17.77
2018-12-21T01:39:42.521Z,16.60
2018-12-21T01:42:10.897Z,14.23
2018-12-21T01:44:39.320Z,14.03
2018-12-21T01:47:07.673Z,16.20
2018-12-21T01:49:36.022Z,17.97
2018-12-21T01:52:04.413Z,15.00
2018-12-21T01:54:32.741Z,14.10
2018-12-21T01:57:01.043Z,15.93
2018-12-21T01:59:29.630Z,15.30
2018-12-21T02:01:57.933Z,14.37
2018-12-21T02:04:26.291Z,17.57
2018-12-21T02:06:54.665Z,19.20
2018-12-21T02:09:22.990Z,12.97
2018-12-21T02:11:51.297Z,16.30
2018-12-21T02:14:19.640Z,14.53
2018-12-21T02:16:47.990Z,12.00
2018-12-21T02:19:16.307Z,10.00
2018-12-21T02:21:44.967Z,11.53
2018-12-21T02:24:13.311Z,11.60
2018-12-21T02:26:41.652Z,8.27
2018-12-21T02:29:10.037Z,6.67
2018-12-21T02:31:38.370Z,5.60
2018-12-21T02:34:06.663Z,5.90
2018-12-21T02:36:34.983Z,5.97
2018-12-21T02:39:04.389Z,5.60
2018-12-21T02:41:32.674Z,4.27
2018-12-21T02:44:01.488Z,3.00
2018-12-21T02:46:29.822Z,2.80
2018-12-21T02:48:58.137Z,2.37
2018-12-21T02:51:26.432Z,5.60
2018-12-21T02:53:54.774Z,2.87
2018-12-21T02:56:23.084Z,2.37
2018-12-21T02:58:51.431Z,2.53
2018-12-21T03:01:19.878Z,2.80
2018-12-21T03:03:48.273Z,2.67
2018-12-21T03:06:17.204Z,2.97
2018-12-21T03:08:45.496Z,2.80
2018-12-21T03:11:13.807Z,3.40
2018-12-21T03:13:42.126Z,3.37
2018-12-21T03:16:10.427Z,3.50
2018-12-21T03:18:38.718Z,3.10
2018-12-21T03:21:07.047Z,3.30
2018-12-21T03:23:35.580Z,3.23
2018-12-21T03:26:03.892Z,3.00
2018-12-21T03:28:32.548Z,3.83
2018-12-21T03:31:00.880Z,3.63
2018-12-21T03:33:29.603Z,4.33
2018-12-21T03:35:58.070Z,14.63
2018-12-21T03:38:26.527Z,4.67
2018-12-21T03:40:54.893Z,4.70
2018-12-21T03:43:23.332Z,5.30
2018-12-21T03:45:51.695Z,5.67
2018-12-21T03:48:20.236Z,6.00
2018-12-21T03:50:49.207Z,7.03
2018-12-21T03:53:17.901Z,7.00
2018-12-21T03:55:46.279Z,11.03
2018-12-21T03:58:14.676Z,10.20
2018-12-21T04:00:43.118Z,6.97
2018-12-21T04:03:11.448Z,7.20
2018-12-21T04:05:39.881Z,6.93
2018-12-21T04:08:08.201Z,8.07
2018-12-21T04:10:36.529Z,6.73
2018-12-21T04:13:05.427Z,5.00
2018-12-21T04:15:34.159Z,6.23
2018-12-21T04:18:02.512Z,6.53
2018-12-21T04:20:30.840Z,5.43
2018-12-21T04:22:59.121Z,6.03
2018-12-21T04:25:27.442Z,6.27
2018-12-21T04:27:55.741Z,6.87
2018-12-21T04:30:24.036Z,5.80
2018-12-21T04:32:52.361Z,5.10
2018-12-21T04:35:20.777Z,6.47
2018-12-21T04:37:49.099Z,5.63
2018-12-21T04:40:17.597Z,5.73
2018-12-21T04:42:45.920Z,4.70
2018-12-21T04:45:14.333Z,5.00
2018-12-21T04:47:42.653Z,4.70
2018-12-21T04:50:11.066Z,3.23
2018-12-21T04:52:43.374Z,5.00
2018-12-21T04:55:09.873Z,4.60
2018-12-21T04:57:38.274Z,3.13
2018-12-21T05:00:07.966Z,3.07
2018-12-21T05:02:36.275Z,3.40
2018-12-21T05:05:05.201Z,3.00
2018-12-21T05:07:40.191Z,2.73
2018-12-21T05:10:09.188Z,2.50
2018-12-21T05:12:37.533Z,2.43
2018-12-21T05:15:06.478Z,3.27
2018-12-21T05:17:35.092Z,2.60
2018-12-21T05:20:03.692Z,2.50
2018-12-21T05:22:31.990Z,2.30
2018-12-21T05:25:00.318Z,2.17
2018-12-21T05:27:28.675Z,4.37
2018-12-21T05:29:56.965Z,1.73
2018-12-21T05:32:25.290Z,1.40
2018-12-21T05:34:53.593Z,2.13
2018-12-21T05:37:21.972Z,3.90
2018-12-21T05:39:50.478Z,1.53
2018-12-21T05:42:18.766Z,4.07
2018-12-21T05:44:47.077Z,2.13
2018-12-21T05:47:15.386Z,2.50
2018-12-21T05:49:43.704Z,2.50
2018-12-21T05:52:12.007Z,1.30
2018-12-21T05:54:40.317Z,1.30
2018-12-21T05:57:08.662Z,12.30
2018-12-21T05:59:36.993Z,1.53
2018-12-21T06:02:06.579Z,1.90
2018-12-21T06:04:34.880Z,2.10
2018-12-21T06:07:03.207Z,1.60
2018-12-21T06:09:31.532Z,2.87
2018-12-21T06:11:59.892Z,3.43
2018-12-21T06:14:28.215Z,1.90
2018-12-21T06:16:56.788Z,4.10
2018-12-21T06:19:25.180Z,2.13
2018-12-21T06:21:53.458Z,2.03
2018-12-21T06:24:22.322Z,2.10
2018-12-21T06:26:50.598Z,1.80
2018-12-21T06:29:18.882Z,3.23
2018-12-21T06:31:47.232Z,1.93
2018-12-21T06:34:15.567Z,7.37
2018-12-21T06:36:43.874Z,10.20
2018-12-21T06:39:12.220Z,3.07
2018-12-21T06:41:41.421Z,2.50
2018-12-21T06:44:09.757Z,3.67
2018-12-21T06:46:38.656Z,4.10
2018-12-21T06:49:08.015Z,3.60
2018-12-21T06:51:36.396Z,8.53
2018-12-21T06:54:04.790Z,4.17
2018-12-21T06:56:33.155Z,4.97
2018-12-21T06:59:01.519Z,4.67
2018-12-21T07:01:29.966Z,4.73
2018-12-21T07:03:58.409Z,4.53
2018-12-21T07:06:26.918Z,6.30
2018-12-21T07:08:55.704Z,5.07
2018-12-21T07:11:24.167Z,4.50
2018-12-21T07:13:52.993Z,5.57
2018-12-21T07:16:21.395Z,5.30
2018-12-21T07:18:49.766Z,7.67
2018-12-21T07:21:18.398Z,14.00
2018-12-21T07:23:46.737Z,9.40
2018-12-21T07:26:15.085Z,7.53
2018-12-21T07:28:43.385Z,11.10
2018-12-21T07:31:12.137Z,5.00
2018-12-21T07:33:40.490Z,5.60
2018-12-21T07:36:08.960Z,5.33
2018-12-21T07:38:37.343Z,4.90
2018-12-21T07:41:05.628Z,6.70
2018-12-21T07:43:33.933Z,5.07
2018-12-21T07:46:02.320Z,5.97
2018-12-21T07:48:30.625Z,5.40
2018-12-21T07:50:58.923Z,6.17
2018-12-21T07:53:35.681Z,6.53
2018-12-21T07:55:57.735Z,14.43
2018-12-21T07:58:26.036Z,6.93
2018-12-21T08:00:54.348Z,6.43
2018-12-21T08:03:22.689Z,12.50
2018-12-21T08:05:50.988Z,14.43
2018-12-21T08:08:19.319Z,10.30
2018-12-21T08:10:47.687Z,6.93
2018-12-21T08:13:15.994Z,16.57
2018-12-21T08:15:44.830Z,12.63
2018-12-21T08:18:13.167Z,12.67
2018-12-21T08:20:41.524Z,10.30
2018-12-21T08:23:09.880Z,7.47
2018-12-21T08:25:38.214Z,13.83
2018-12-21T08:28:06.578Z,10.30
2018-12-21T08:30:34.951Z,7.27
2018-12-21T08:33:07.412Z,9.93
2018-12-21T08:35:36.151Z,7.13
2018-12-21T08:38:04.497Z,10.90
2018-12-21T08:40:32.839Z,10.67
2018-12-21T08:43:01.184Z,21.10
2018-12-21T08:45:29.515Z,11.97
2018-12-21T08:47:57.803Z,6.47
2018-12-21T08:50:26.315Z,12.23
2018-12-21T08:52:54.661Z,9.23
2018-12-21T08:55:22.989Z,17.13
2018-12-21T08:57:51.444Z,14.00
2018-12-21T09:00:19.744Z,5.37
2018-12-21T09:02:48.045Z,6.97
2018-12-21T09:05:16.387Z,10.87
2018-12-21T09:07:44.717Z,5.13
2018-12-21T09:10:13.089Z,10.63
2018-12-21T09:12:41.419Z,14.67
2018-12-21T09:15:12.473Z,12.33
2018-12-21T09:17:40.849Z,10.23
2018-12-21T09:20:11.648Z,7.80
2018-12-21T09:22:40.984Z,4.97
2018-12-21T09:25:09.381Z,9.20
2018-12-21T09:27:37.711Z,13.13
2018-12-21T09:30:10.925Z,13.53
2018-12-21T09:32:39.293Z,9.43
2018-12-21T09:35:07.632Z,5.50
2018-12-21T09:37:35.965Z,7.97
2018-12-21T09:40:08.152Z,15.60
2018-12-21T09:42:36.462Z,4.97
2018-12-21T09:45:05.320Z,3.83
2018-12-21T09:47:33.656Z,7.53
2018-12-21T09:50:02.061Z,7.60
2018-12-21T09:52:30.693Z,9.33
2018-12-21T09:54:59.056Z,10.73
2018-12-21T09:57:27.351Z,15.77
2018-12-21T09:59:55.712Z,14.00
2018-12-21T10:02:24.280Z,9.80
2018-12-21T10:04:52.610Z,8.77
2018-12-21T10:07:27.599Z,5.67
2018-12-21T10:09:51.274Z,10.77
2018-12-21T10:12:19.568Z,7.47
2018-12-21T10:14:47.871Z,4.53
2018-12-21T10:17:16.248Z,5.00
2018-12-21T10:19:44.571Z,16.17
2018-12-21T10:22:12.927Z,4.27
2018-12-21T10:24:41.519Z,10.17
2018-12-21T10:27:09.839Z,7.53
2018-12-21T10:29:38.124Z,5.77
2018-12-21T10:32:06.501Z,5.23
2018-12-21T10:34:34.805Z,5.50
2018-12-21T10:37:03.138Z,5.53
2018-12-21T10:39:31.477Z,10.93
2018-12-21T10:41:59.818Z,5.60
2018-12-21T10:44:28.108Z,10.80
2018-12-21T10:46:56.933Z,12.53
2018-12-21T10:49:25.345Z,15.27
2018-12-21T10:51:53.643Z,9.47
2018-12-21T10:54:26.771Z,11.03
2018-12-21T10:56:52.387Z,5.03
2018-12-21T10:59:21.129Z,11.10
2018-12-21T11:01:49.744Z,4.33
2018-12-21T11:04:18.071Z,12.03
2018-12-21T11:06:46.399Z,13.37
2018-12-21T11:09:15.268Z,8.20
2018-12-21T11:11:43.623Z,11.50
2018-12-21T11:14:12.171Z,6.93
2018-12-21T11:16:40.542Z,4.90
2018-12-21T11:19:08.922Z,8.53
2018-12-21T11:21:37.221Z,6.93
2018-12-21T11:24:05.641Z,11.00
2018-12-21T11:26:33.962Z,11.20
2018-12-21T11:29:02.307Z,13.77
2018-12-21T11:31:31.034Z,6.77
2018-12-21T11:33:59.367Z,11.60
2018-12-21T11:36:27.668Z,7.60
2018-12-21T11:38:56.007Z,8.60
2018-12-21T11:41:24.340Z,8.63
2018-12-21T11:43:52.654Z,9.10
2018-12-21T11:46:21.006Z,8.53
2018-12-21T11:48:49.324Z,16.07
2018-12-21T11:51:17.644Z,5.10
2018-12-21T11:53:46.381Z,5.83
2018-12-21T11:56:14.724Z,5.77
2018-12-21T11:58:43.027Z,5.37
2018-12-21T12:01:11.370Z,4.13
2018-12-21T12:03:39.700Z,14.17
2018-12-21T12:06:07.984Z,7.53
2018-12-21T12:08:36.353Z,6.60
2018-12-21T12:11:04.648Z,5.13
2018-12-21T12:13:33.034Z,13.77
2018-12-21T12:16:01.813Z,7.27
2018-12-21T12:18:30.150Z,14.03
2018-12-21T12:20:58.464Z,3.27
2018-12-21T12:23:26.769Z,2.80
2018-12-21T12:25:55.104Z,3.40
2018-12-21T12:28:23.518Z,3.13
2018-12-21T12:30:51.936Z,2.40
2018-12-21T12:33:20.243Z,2.10
2018-12-21T12:35:48.561Z,5.10
2018-12-21T12:38:16.928Z,3.03
2018-12-21T12:40:45.228Z,2.10
2018-12-21T12:43:13.577Z,10.10
2018-12-21T12:45:41.959Z,1.80
2018-12-21T12:48:10.489Z,2.70
2018-12-21T12:50:39.005Z,2.27
2018-12-21T12:53:07.344Z,3.03
2018-12-21T12:55:35.653Z,9.30
2018-12-21T12:58:03.979Z,4.83
2018-12-21T13:00:32.395Z,3.50
2018-12-21T13:03:00.701Z,4.40
2018-12-21T13:05:29.072Z,2.70
2018-12-21T13:07:57.414Z,4.23
2018-12-21T13:10:25.721Z,3.87
2018-12-21T13:12:54.102Z,7.70
2018-12-21T13:15:22.470Z,3.23
2018-12-21T13:17:50.863Z,3.70
2018-12-21T13:20:19.188Z,3.30
2018-12-21T13:22:47.795Z,3.53
2018-12-21T13:25:16.179Z,4.47
2018-12-21T13:27:44.511Z,3.30
2018-12-21T13:30:12.920Z,3.47
2018-12-21T13:32:41.199Z,3.00
2018-12-21T13:35:09.953Z,3.00
2018-12-21T13:37:38.367Z,32.87
2018-12-21T13:40:09.736Z,3.10
2018-12-21T13:42:38.030Z,2.93
2018-12-21T13:45:08.804Z,2.83
2018-12-21T13:47:37.110Z,4.70
2018-12-21T13:50:09.165Z,3.80
2018-12-21T13:52:37.475Z,5.10
2018-12-21T13:55:05.870Z,3.10
2018-12-21T13:57:34.209Z,3.47
2018-12-21T14:00:02.690Z,2.77
2018-12-21T14:02:31.013Z,2.60
2018-12-21T14:04:59.926Z,2.30
2018-12-21T14:07:28.347Z,2.60
2018-12-21T14:09:56.662Z,3.10
2018-12-21T14:12:25.003Z,2.50
2018-12-21T14:14:53.274Z,2.70
2018-12-21T14:17:21.537Z,2.93
2018-12-21T14:19:49.858Z,2.67
2018-12-21T14:22:18.127Z,3.30
2018-12-21T14:24:46.408Z,3.70
2018-12-21T14:27:15.311Z,4.97
2018-12-21T14:29:43.649Z,3.10
2018-12-21T14:32:11.927Z,3.10
2018-12-21T14:34:40.259Z,2.83
2018-12-21T14:37:08.522Z,4.03
2018-12-21T14:39:36.909Z,4.30
2018-12-21T14:42:05.278Z,3.37
2018-12-21T14:44:33.588Z,3.50
2018-12-21T14:47:01.887Z,6.03
2018-12-21T14:49:30.842Z,4.80
2018-12-21T14:51:59.162Z,4.87
2018-12-21T14:54:27.512Z,3.90
2018-12-21T14:56:55.941Z,4.30
2018-12-21T14:59:24.282Z,4.20
2018-12-21T15:01:52.712Z,4.10
2018-12-21T15:04:21.139Z,4.40
2018-12-21T15:06:49.461Z,4.73
2018-12-21T15:09:17.756Z,3.90
2018-12-21T15:11:46.329Z,4.07
2018-12-21T15:14:14.657Z,4.07
2018-12-21T15:16:42.934Z,4.93
2018-12-21T15:19:11.285Z,3.53
2018-12-21T15:21:39.678Z,3.73
2018-12-21T15:24:07.987Z,4.03
2018-12-21T15:26:36.298Z,4.63
2018-12-21T15:29:04.662Z,5.80
2018-12-21T15:31:32.998Z,4.23
2018-12-21T15:34:01.372Z,4.87
2018-12-21T15:36:29.713Z,4.90
2018-12-21T15:38:57.993Z,3.63
2018-12-21T15:41:26.413Z,3.90
2018-12-21T15:43:54.749Z,4.33
2018-12-21T15:46:23.030Z,3.40
2018-12-21T15:48:51.516Z,3.43
2018-12-21T15:51:19.896Z,3.73
2018-12-21T15:53:48.249Z,3.70
2018-12-21T15:56:16.937Z,3.33
2018-12-21T15:58:45.241Z,3.93
2018-12-21T16:01:13.595Z,3.50
2018-12-21T16:03:41.922Z,6.20
2018-12-21T16:06:10.219Z,4.23
2018-12-21T16:08:38.531Z,3.70
2018-12-21T16:11:06.950Z,6.93
2018-12-21T16:13:35.222Z,4.23
2018-12-21T16:16:03.632Z,4.83
2018-12-21T16:18:32.517Z,5.20
2018-12-21T16:21:00.851Z,4.80
2018-12-21T16:23:29.152Z,4.73
2018-12-21T16:26:03.435Z,5.30
2018-12-21T16:28:27.857Z,5.00
2018-12-21T16:30:56.198Z,4.90
2018-12-21T16:33:24.557Z,6.20
2018-12-21T16:35:52.857Z,6.30
2018-12-21T16:38:21.189Z,6.17
2018-12-21T16:40:49.837Z,6.37
2018-12-21T16:43:18.157Z,10.20
2018-12-21T16:45:46.565Z,15.17
2018-12-21T16:48:15.003Z,9.10
2018-12-21T16:50:43.372Z,8.23
2018-12-21T16:53:11.780Z,9.03
2018-12-21T16:55:40.379Z,10.27
2018-12-21T16:58:08.719Z,10.83
2018-12-21T17:00:37.108Z,12.97
2018-12-21T17:03:05.552Z,10.53
2018-12-21T17:05:33.903Z,8.77
2018-12-21T17:08:02.245Z,11.70
2018-12-21T17:10:30.622Z,10.27
2018-12-21T17:12:58.982Z,8.63
2018-12-21T17:15:27.394Z,8.47
2018-12-21T17:17:55.746Z,14.93
2018-12-21T17:20:24.203Z,10.47
2018-12-21T17:22:52.586Z,12.17
2018-12-21T17:25:21.286Z,7.90
2018-12-21T17:27:49.605Z,7.63
2018-12-21T17:30:18.008Z,10.20
2018-12-21T17:32:46.405Z,13.83
2018-12-21T17:35:14.698Z,6.50
2018-12-21T17:37:43.010Z,5.70
2018-12-21T17:40:11.394Z,6.57
2018-12-21T17:42:39.710Z,5.57
2018-12-21T17:45:08.668Z,4.93
2018-12-21T17:47:37.612Z,4.40
2018-12-21T17:50:08.149Z,3.60
2018-12-21T17:52:36.452Z,6.00
2018-12-21T17:55:06.385Z,5.27
2018-12-21T17:57:34.745Z,4.00
2018-12-21T18:00:05.089Z,27.07
2018-12-21T18:02:33.495Z,4.67
2018-12-21T18:05:03.106Z,4.07
2018-12-21T18:07:31.660Z,3.50
2018-12-21T18:10:00.312Z,4.20
2018-12-21T18:12:28.682Z,3.67
2018-12-21T18:14:57.326Z,3.00
2018-12-21T18:17:25.679Z,2.80
2018-12-21T18:19:54.038Z,5.60
2018-12-21T18:22:22.420Z,3.00
2018-12-21T18:24:50.855Z,3.00
2018-12-21T18:27:19.170Z,4.87
2018-12-21T18:29:47.822Z,3.43
2018-12-21T18:32:19.471Z,10.03
2018-12-21T18:34:47.849Z,12.23
2018-12-21T18:37:16.329Z,15.70
2018-12-21T18:39:44.887Z,6.90
2018-12-21T18:42:13.393Z,6.40
2018-12-21T18:44:41.712Z,5.20
2018-12-21T18:47:10.112Z,10.67
2018-12-21T18:49:38.398Z,6.53
2018-12-21T18:52:06.745Z,16.33
2018-12-21T18:54:35.295Z,3.33
2018-12-21T18:57:04.076Z,7.50
2018-12-21T18:59:32.454Z,3.33
2018-12-21T19:02:00.772Z,2.70
2018-12-21T19:04:29.153Z,4.80
2018-12-21T19:06:57.527Z,7.40
2018-12-21T19:09:25.922Z,12.37
2018-12-21T19:11:54.291Z,3.63
2018-12-21T19:14:22.945Z,3.27
2018-12-21T19:16:51.776Z,4.50
2018-12-21T19:19:20.153Z,5.57
2018-12-21T19:21:48.457Z,5.30
2018-12-21T19:24:16.846Z,3.57
2018-12-21T19:26:45.217Z,8.30
2018-12-21T19:29:13.603Z,10.90
2018-12-21T19:31:41.975Z,3.87
2018-12-21T19:34:10.310Z,11.87
2018-12-21T19:36:38.640Z,4.27
2018-12-21T19:39:08.183Z,14.63
2018-12-21T19:41:36.510Z,4.97
2018-12-21T19:44:04.830Z,8.13
2018-12-21T19:46:33.170Z,3.47
2018-12-21T19:49:01.527Z,10.43
2018-12-21T19:51:29.893Z,3.23
2018-12-21T19:53:58.218Z,5.27
2018-12-21T19:56:30.334Z,7.73
2018-12-21T19:58:58.802Z,8.30
2018-12-21T20:01:27.096Z,6.40
2018-12-21T20:03:55.455Z,5.13
2018-12-21T20:06:24.338Z,8.20
2018-12-21T20:08:52.705Z,4.80
2018-12-21T20:11:21.069Z,8.03
2018-12-21T20:13:49.390Z,4.63
2018-12-21T20:16:17.755Z,3.93
2018-12-21T20:18:47.684Z,6.20
2018-12-21T20:21:16.626Z,4.57
2018-12-21T20:23:44.952Z,8.37
2018-12-21T20:26:13.308Z,3.43
2018-12-21T20:28:41.681Z,10.63
2018-12-21T20:31:10.012Z,4.67
2018-12-21T20:33:38.390Z,4.93
2018-12-21T20:36:06.746Z,3.17
2018-12-21T20:38:35.047Z,3.97
2018-12-21T20:41:08.889Z,3.23
2018-12-21T20:43:37.191Z,3.67
2018-12-21T20:46:05.613Z,4.30
2018-12-21T20:48:34.022Z,5.40
2018-12-21T20:51:02.345Z,7.67
2018-12-21T20:53:30.640Z,4.97
2018-12-21T20:55:59.018Z,10.57
2018-12-21T20:58:29.617Z,8.53
2018-12-21T21:00:58.392Z,7.03
2018-12-21T21:03:27.140Z,7.70
2018-12-21T21:05:55.478Z,3.80
2018-12-21T21:08:23.795Z,8.97
2018-12-21T21:10:52.149Z,7.80
2018-12-21T21:13:20.477Z,9.70
2018-12-21T21:15:48.785Z,4.40
2018-12-21T21:18:17.138Z,2.23
2018-12-21T21:20:45.440Z,1.83
2018-12-21T21:23:13.755Z,4.63
2018-12-21T21:25:42.473Z,1.60
2018-12-21T21:28:10.828Z,2.40
2018-12-21T21:30:39.439Z,2.27
2018-12-21T21:33:07.787Z,1.80
2018-12-21T21:35:36.104Z,1.40
2018-12-21T21:38:04.406Z,1.33
2018-12-21T21:40:32.778Z,1.50
2018-12-21T21:43:01.142Z,4.00
2018-12-21T21:45:29.547Z,1.70
2018-12-21T21:47:58.004Z,9.83
2018-12-21T21:50:26.391Z,2.10
2018-12-21T21:52:54.729Z,3.33
2018-12-21T21:55:24.194Z,1.10
2018-12-21T21:57:52.802Z,2.83
2018-12-21T22:00:21.208Z,1.07
2018-12-21T22:02:49.773Z,2.70
2018-12-21T22:05:18.075Z,2.63
2018-12-21T22:07:46.383Z,0.90
2018-12-21T22:10:14.872Z,2.00
2018-12-21T22:12:43.244Z,1.10
2018-12-21T22:15:11.561Z,1.20
2018-12-21T22:17:39.900Z,1.30
2018-12-21T22:20:09.251Z,1.10
2018-12-21T22:22:37.557Z,1.70
2018-12-21T22:25:05.928Z,2.83
2018-12-21T22:27:34.222Z,1.67
2018-12-21T22:30:02.709Z,1.20
2018-12-21T22:32:31.152Z,3.03
2018-12-21T22:34:59.685Z,1.27
2018-12-21T22:37:27.988Z,1.70
2018-12-21T22:39:56.306Z,6.70
2018-12-21T22:42:24.710Z,1.20
2018-12-21T22:44:53.084Z,2.03
2018-12-21T22:47:21.416Z,1.37
2018-12-21T22:49:49.761Z,1.07
2018-12-21T22:52:18.065Z,1.43
2018-12-21T22:54:46.753Z,0.90
2018-12-21T22:57:15.038Z,1.10
2018-12-21T22:59:43.341Z,2.97
2018-12-21T23:02:11.738Z,1.23
2018-12-21T23:04:40.066Z,2.03
2018-12-21T23:07:08.372Z,2.37
2018-12-21T23:09:36.864Z,1.23
2018-12-21T23:12:05.214Z,2.30
2018-12-21T23:14:33.566Z,0.73
2018-12-21T23:17:02.093Z,1.60
2018-12-21T23:19:30.394Z,4.00
2018-12-21T23:21:58.766Z,0.77
2018-12-21T23:24:27.076Z,1.00
2018-12-21T23:26:55.392Z,0.93
2018-12-21T23:29:23.696Z,0.80
2018-12-21T23:31:52.058Z,4.63
2018-12-21T23:34:20.377Z,0.80
2018-12-21T23:36:48.707Z,1.07
2018-12-21T23:39:17.995Z,0.90
2018-12-21T23:41:46.314Z,1.97
2018-12-21T23:44:14.641Z,1.30
2018-12-21T23:46:42.973Z,0.90
2018-12-21T23:49:11.407Z,0.87
2018-12-21T23:51:39.768Z,0.93
2018-12-21T23:54:08.103Z,0.80
2018-12-21T23:56:36.418Z,1.10
2018-12-21T23:59:04.769Z,1.50
